createdAt,value
2022-12-07T00:01:47.310Z,1.92
2022-12-07T00:04:18.602Z,1.02
2022-12-07T00:06:51.135Z,1.55
2022-12-07T00:09:20.627Z,1.05
2022-12-07T00:11:52.742Z,1.37
2022-12-07T00:14:21.923Z,0.98
2022-12-07T00:16:52.154Z,1.85
2022-12-07T00:19:20.909Z,1.83
2022-12-07T00:21:49.137Z,1.45
2022-12-07T00:24:17.466Z,1.17
2022-12-07T00:26:46.395Z,1.12
2022-12-07T00:29:23.491Z,0.95
2022-12-07T00:31:52.059Z,1.50
2022-12-07T00:34:21.733Z,1.40
2022-12-07T00:36:51.116Z,1.92
2022-12-07T00:39:19.450Z,1.42
2022-12-07T00:41:47.769Z,2.28
2022-12-07T00:44:15.947Z,1.37
2022-12-07T00:46:46.320Z,2.00
2022-12-07T00:49:14.919Z,1.73
2022-12-07T00:51:43.118Z,1.25
2022-12-07T00:54:11.459Z,2.22
2022-12-07T00:56:39.607Z,1.30
2022-12-07T00:59:08.201Z,1.33
2022-12-07T01:01:38.037Z,1.52
2022-12-07T01:04:06.821Z,1.75
2022-12-07T01:06:35.662Z,0.85
2022-12-07T01:09:04.915Z,1.55
2022-12-07T01:11:33.571Z,1.30
2022-12-07T01:14:02.284Z,1.80
2022-12-07T01:16:32.082Z,1.17
2022-12-07T01:19:01.464Z,1.98
2022-12-07T01:21:35.894Z,2.17
2022-12-07T01:24:06.891Z,1.20
2022-12-07T01:26:35.123Z,1.30
2022-12-07T01:29:03.454Z,1.05
2022-12-07T01:31:31.943Z,1.20
2022-12-07T01:34:00.935Z,1.30
2022-12-07T01:36:35.219Z,1.50
2022-12-07T01:39:06.893Z,1.30
2022-12-07T01:41:40.408Z,1.62
2022-12-07T01:44:25.915Z,1.52
2022-12-07T01:46:57.001Z,0.98
2022-12-07T01:49:34.431Z,1.23
2022-12-07T01:52:37.325Z,1.05
2022-12-07T01:55:09.593Z,1.00
2022-12-07T01:57:42.320Z,1.27
2022-12-07T02:00:12.027Z,1.50
2022-12-07T02:02:48.925Z,1.08
2022-12-07T02:05:18.426Z,0.93
2022-12-07T02:07:48.366Z,0.98
2022-12-07T02:10:20.903Z,1.25
2022-12-07T02:12:59.398Z,0.85
2022-12-07T02:15:42.548Z,1.45
2022-12-07T02:18:22.509Z,1.12
2022-12-07T02:21:09.773Z,0.90
2022-12-07T02:23:46.295Z,2.28
2022-12-07T02:26:28.787Z,1.23
2022-12-07T02:29:08.807Z,1.35
2022-12-07T02:31:41.537Z,0.93
2022-12-07T02:34:20.479Z,0.85
2022-12-07T02:36:57.997Z,0.82
2022-12-07T02:39:38.458Z,1.20
2022-12-07T02:42:24.659Z,0.60
2022-12-07T02:44:53.488Z,1.27
2022-12-07T02:47:24.907Z,1.02
2022-12-07T02:49:53.776Z,0.80
2022-12-07T02:52:21.925Z,1.30
2022-12-07T02:54:50.126Z,1.25
2022-12-07T02:57:52.438Z,1.52
2022-12-07T03:00:21.942Z,0.75
2022-12-07T03:03:05.203Z,1.42
2022-12-07T03:05:53.158Z,1.48
2022-12-07T03:08:33.683Z,0.75
2022-12-07T03:11:06.388Z,1.10
2022-12-07T03:13:54.000Z,1.23
2022-12-07T03:16:34.779Z,0.85
2022-12-07T03:19:18.315Z,1.45
2022-12-07T03:21:52.461Z,1.23
2022-12-07T03:24:25.686Z,0.95
2022-12-07T03:27:00.646Z,1.10
2022-12-07T03:29:35.837Z,0.88
2022-12-07T03:32:17.197Z,1.35
2022-12-07T03:35:04.369Z,1.20
2022-12-07T03:37:38.937Z,1.40
2022-12-07T03:40:24.684Z,1.23
2022-12-07T03:45:31.084Z,1.62
2022-12-07T03:48:15.427Z,2.47
2022-12-07T03:50:53.723Z,2.77
2022-12-07T03:53:31.328Z,3.25
2022-12-07T03:56:01.090Z,1.30
2022-12-07T03:58:30.751Z,1.50
2022-12-07T04:00:59.245Z,1.50
2022-12-07T04:03:27.758Z,1.90
2022-12-07T04:05:56.232Z,3.08
2022-12-07T04:08:24.412Z,2.20
2022-12-07T04:10:52.903Z,1.80
2022-12-07T04:13:21.155Z,1.98
2022-12-07T04:15:49.232Z,3.50
2022-12-07T04:18:18.603Z,3.92
2022-12-07T04:20:47.644Z,2.65
2022-12-07T04:23:15.698Z,2.47
2022-12-07T04:25:44.330Z,2.58
2022-12-07T04:28:13.021Z,3.05
2022-12-07T04:30:41.042Z,2.50
2022-12-07T04:33:10.049Z,1.45
2022-12-07T04:35:38.519Z,2.58
2022-12-07T04:38:07.332Z,2.92
2022-12-07T04:40:36.185Z,2.12
2022-12-07T04:43:05.779Z,3.47
2022-12-07T04:45:33.871Z,1.65
2022-12-07T04:48:02.699Z,2.17
2022-12-07T04:50:30.844Z,1.58
2022-12-07T04:52:58.952Z,1.40
2022-12-07T04:55:27.616Z,1.20
2022-12-07T04:57:56.038Z,1.87
2022-12-07T05:00:24.011Z,1.60
2022-12-07T05:02:52.589Z,1.50
2022-12-07T05:05:20.775Z,1.75
2022-12-07T05:07:48.976Z,0.95
2022-12-07T05:10:17.706Z,1.00
2022-12-07T05:12:46.840Z,1.23
2022-12-07T05:15:16.673Z,1.27
2022-12-07T05:17:45.372Z,1.23
2022-12-07T05:20:16.753Z,1.67
2022-12-07T05:22:45.188Z,0.80
2022-12-07T05:25:13.419Z,1.55
2022-12-07T05:27:41.470Z,1.27
2022-12-07T05:30:10.702Z,1.62
2022-12-07T05:32:38.998Z,1.92
2022-12-07T05:35:07.549Z,1.58
2022-12-07T05:37:36.071Z,1.58
2022-12-07T05:40:05.815Z,1.50
2022-12-07T05:42:33.904Z,1.30
2022-12-07T05:45:02.452Z,1.15
2022-12-07T05:47:30.864Z,1.27
2022-12-07T05:49:59.128Z,1.20
2022-12-07T05:52:27.702Z,0.73
2022-12-07T05:54:55.980Z,1.70
2022-12-07T05:57:23.983Z,0.77
2022-12-07T05:59:52.346Z,1.80
2022-12-07T06:02:20.780Z,0.93
2022-12-07T06:04:49.392Z,1.12
2022-12-07T06:07:18.028Z,1.17
2022-12-07T06:09:48.456Z,1.50
2022-12-07T06:12:35.066Z,1.83
2022-12-07T06:15:03.511Z,1.70
2022-12-07T06:17:31.850Z,2.00
2022-12-07T06:20:00.170Z,1.70
2022-12-07T06:22:28.945Z,1.92
2022-12-07T06:24:57.360Z,2.12
2022-12-07T06:27:25.428Z,1.23
2022-12-07T06:29:53.603Z,1.60
2022-12-07T06:32:21.933Z,1.27
2022-12-07T06:34:49.964Z,1.25
2022-12-07T06:37:18.083Z,1.50
2022-12-07T06:39:46.877Z,1.55
2022-12-07T06:42:15.022Z,1.40
2022-12-07T06:44:43.205Z,2.12
2022-12-07T06:47:39.656Z,1.37
2022-12-07T06:50:01.123Z,1.33
2022-12-07T06:52:30.095Z,1.75
2022-12-07T06:54:58.226Z,1.77
2022-12-07T06:57:27.207Z,1.42
2022-12-07T06:59:55.651Z,1.92
2022-12-07T11:55:34.771Z,2.28
2022-12-07T11:58:56.968Z,1.60
2022-12-07T12:02:21.052Z,1.62
2022-12-07T12:05:28.532Z,1.73
2022-12-07T12:15:22.197Z,1.95
2022-12-07T12:18:44.202Z,1.40
2022-12-07T12:21:55.514Z,1.55
2022-12-07T12:24:52.947Z,1.65
2022-12-07T12:28:06.900Z,2.62
2022-12-07T12:31:09.923Z,1.60
2022-12-07T12:34:43.052Z,1.95
2022-12-07T12:37:35.964Z,1.67
2022-12-07T12:40:47.039Z,1.58
2022-12-07T12:43:50.332Z,1.05
2022-12-07T12:47:06.111Z,2.25
2022-12-07T12:50:34.731Z,1.40
2022-12-07T12:53:38.279Z,1.48
2022-12-07T12:56:43.939Z,1.50
2022-12-07T12:59:55.219Z,1.05
2022-12-07T13:02:55.601Z,1.45
2022-12-07T13:06:21.522Z,1.90
2022-12-07T13:09:31.137Z,1.98
2022-12-07T13:12:34.339Z,2.22
2022-12-07T13:15:51.113Z,1.75
2022-12-07T13:18:57.076Z,1.85
2022-12-07T13:21:48.950Z,1.10
2022-12-07T13:24:57.769Z,1.15
2022-12-07T13:28:10.931Z,0.85
2022-12-07T13:31:37.055Z,1.52
2022-12-07T13:34:47.935Z,0.98
2022-12-07T13:37:45.835Z,2.45
2022-12-07T13:41:19.315Z,0.82
2022-12-07T13:47:45.399Z,1.92
2022-12-07T13:50:36.544Z,1.55
2022-12-07T13:53:48.494Z,1.15
2022-12-07T13:56:40.752Z,2.10
2022-12-07T13:59:44.205Z,1.45
2022-12-07T14:03:01.697Z,1.77
2022-12-07T14:06:18.852Z,1.67
2022-12-07T14:09:24.187Z,1.50
2022-12-07T14:12:30.587Z,1.37
2022-12-07T14:15:37.047Z,1.52
2022-12-07T14:18:42.247Z,1.48
2022-12-07T14:22:09.933Z,1.00
2022-12-07T14:25:31.851Z,2.60
2022-12-07T14:28:37.564Z,1.45
2022-12-07T14:31:43.313Z,1.08
2022-12-07T14:34:59.768Z,1.58
2022-12-07T14:37:57.424Z,1.95
2022-12-07T14:41:34.691Z,1.87
2022-12-07T14:44:35.479Z,2.60
2022-12-07T14:50:38.083Z,1.35
2022-12-07T14:53:57.356Z,2.67
2022-12-07T14:56:56.986Z,1.60
2022-12-07T15:00:37.812Z,1.60
2022-12-07T15:03:36.209Z,1.58
2022-12-07T15:06:57.736Z,1.12
2022-12-07T15:09:50.998Z,1.85
2022-12-07T15:12:57.263Z,1.42
2022-12-07T15:16:01.434Z,1.55
2022-12-07T15:19:26.768Z,2.05
2022-12-07T15:22:03.891Z,1.23
2022-12-07T15:24:59.396Z,1.90
2022-12-07T15:28:04.326Z,1.70
2022-12-07T15:30:56.268Z,1.70
2022-12-07T15:34:05.194Z,1.52
2022-12-07T15:36:57.614Z,2.28
2022-12-07T15:40:14.545Z,2.08
2022-12-07T15:43:05.791Z,2.17
2022-12-07T15:46:09.538Z,1.35
2022-12-07T15:49:01.125Z,1.95
2022-12-07T15:51:55.694Z,2.45
2022-12-07T15:54:58.678Z,1.98
2022-12-07T15:57:50.857Z,2.03
2022-12-07T16:00:53.753Z,1.70
2022-12-07T16:04:02.337Z,1.77
2022-12-07T16:06:55.053Z,3.03
2022-12-07T16:10:03.664Z,2.05
2022-12-07T16:12:54.332Z,1.92
2022-12-07T16:15:57.677Z,1.92
2022-12-07T16:18:52.386Z,2.05
2022-12-07T16:22:11.395Z,5.05
2022-12-07T16:25:07.819Z,6.30
2022-12-07T16:28:15.889Z,15.15
2022-12-07T16:31:27.258Z,19.98
2022-12-07T16:34:34.709Z,11.68
2022-12-07T16:37:28.573Z,10.30
2022-12-07T16:40:31.793Z,7.07
2022-12-07T16:43:22.407Z,4.95
2022-12-07T16:46:26.088Z,7.00
2022-12-07T16:49:17.705Z,6.00
2022-12-07T16:55:16.537Z,4.75
2022-12-07T16:58:20.960Z,3.62
2022-12-07T17:01:24.338Z,4.62
2022-12-07T17:04:29.507Z,10.77
2022-12-07T17:07:32.985Z,13.98
2022-12-07T17:10:25.759Z,13.05
2022-12-07T17:13:49.721Z,11.98
2022-12-07T17:16:49.875Z,8.30
2022-12-07T17:19:55.445Z,8.10
2022-12-07T17:22:51.991Z,7.75
2022-12-07T17:25:56.597Z,5.32
2022-12-07T17:29:09.714Z,4.93
2022-12-07T17:32:23.796Z,4.03
2022-12-07T17:35:14.703Z,3.55
2022-12-07T17:38:08.181Z,3.17
2022-12-07T17:41:39.025Z,2.83
2022-12-07T17:44:30.569Z,4.82
2022-12-07T17:47:24.840Z,4.30
2022-12-07T17:50:46.572Z,4.47
2022-12-07T17:53:41.151Z,2.97
2022-12-07T17:56:45.761Z,2.50
2022-12-07T17:59:52.361Z,4.05
2022-12-07T18:02:56.571Z,4.90
2022-12-07T18:06:02.668Z,3.75
2022-12-07T18:09:09.127Z,4.05
2022-12-07T18:12:13.480Z,3.85
2022-12-07T18:15:22.608Z,2.25
2022-12-07T18:18:13.666Z,1.77
2022-12-07T18:21:24.160Z,2.20
2022-12-07T18:24:17.799Z,3.33
2022-12-07T18:27:21.538Z,2.55
2022-12-07T18:30:13.104Z,3.37
2022-12-07T18:33:21.873Z,2.50
2022-12-07T18:36:14.723Z,2.78
2022-12-07T18:39:22.509Z,1.92
2022-12-07T18:42:18.978Z,1.10
2022-12-07T18:45:27.957Z,2.08
2022-12-07T18:48:21.157Z,2.60
2022-12-07T18:51:32.302Z,2.17
2022-12-07T18:54:31.347Z,3.17
2022-12-07T18:57:43.797Z,2.53
2022-12-07T19:00:56.076Z,1.98
2022-12-07T19:04:06.121Z,3.60
2022-12-07T19:06:59.455Z,1.95
2022-12-07T19:10:08.093Z,1.98
2022-12-07T19:13:12.911Z,3.50
2022-12-07T19:16:10.244Z,3.12
2022-12-07T19:19:13.904Z,2.83
2022-12-07T19:22:22.994Z,3.22
2022-12-07T19:25:26.678Z,2.60
2022-12-07T19:28:17.475Z,2.62
2022-12-07T19:31:29.177Z,2.50
2022-12-07T19:34:39.389Z,2.25
2022-12-07T19:37:36.676Z,1.83
2022-12-07T19:40:49.503Z,2.55
2022-12-07T19:43:51.697Z,2.67
2022-12-07T19:47:04.057Z,1.75
2022-12-07T19:49:52.234Z,3.47
2022-12-07T19:52:56.366Z,1.77
2022-12-07T19:55:48.177Z,2.25
2022-12-07T19:58:51.848Z,2.28
2022-12-07T20:01:46.729Z,2.75
2022-12-07T20:04:54.789Z,2.35
2022-12-07T20:07:57.725Z,2.20
2022-12-07T20:11:28.027Z,2.05
2022-12-07T20:14:27.986Z,1.73
2022-12-07T20:17:37.695Z,1.90
2022-12-07T20:20:36.815Z,2.40
2022-12-07T20:23:42.187Z,3.15
2022-12-07T20:26:54.828Z,1.55
2022-12-07T20:29:47.313Z,2.30
2022-12-07T20:33:05.958Z,2.12
2022-12-07T20:36:05.400Z,2.22
2022-12-07T20:39:09.534Z,1.58
2022-12-07T20:42:18.775Z,2.47
2022-12-07T20:45:21.590Z,1.95
2022-12-07T20:48:12.128Z,2.78
2022-12-07T20:51:16.159Z,3.60
2022-12-07T20:54:07.410Z,4.53
2022-12-07T20:57:11.017Z,6.78
2022-12-07T21:00:02.564Z,2.17
2022-12-07T21:03:12.810Z,2.42
2022-12-07T21:06:04.256Z,1.58
2022-12-07T21:09:26.955Z,4.97
2022-12-07T21:12:21.803Z,3.47
2022-12-07T21:15:26.015Z,1.65
2022-12-07T21:18:17.115Z,2.22
2022-12-07T21:21:20.905Z,1.20
2022-12-07T21:24:26.328Z,1.85
2022-12-07T21:27:24.197Z,1.23
2022-12-07T21:30:20.802Z,1.30
2022-12-07T21:33:24.254Z,2.08
2022-12-07T21:36:35.600Z,1.50
2022-12-07T21:39:28.191Z,1.05
2022-12-07T21:42:36.077Z,1.08
2022-12-07T21:45:33.202Z,1.77
2022-12-07T21:49:03.527Z,1.70
2022-12-07T21:52:08.082Z,1.87
2022-12-07T21:55:35.393Z,1.27
2022-12-07T21:58:39.077Z,1.27
2022-12-07T22:02:23.779Z,1.45
2022-12-07T22:06:10.095Z,1.73
2022-12-07T22:12:58.064Z,0.80
2022-12-07T22:16:44.317Z,1.45
2022-12-07T22:19:33.891Z,0.82
2022-12-07T22:27:25.935Z,1.85
2022-12-07T22:30:29.670Z,1.85
2022-12-07T22:33:43.711Z,1.95
2022-12-07T22:36:53.569Z,1.65
2022-12-07T22:39:47.177Z,0.90
2022-12-07T22:42:54.336Z,2.08
2022-12-07T22:46:11.355Z,1.27
2022-12-07T22:49:16.387Z,2.78
2022-12-07T22:52:02.966Z,3.55
2022-12-07T22:55:13.864Z,3.80
2022-12-07T22:58:26.604Z,2.83
2022-12-07T23:01:24.891Z,3.25
2022-12-07T23:04:40.783Z,4.12
2022-12-07T23:07:20.052Z,4.68
2022-12-07T23:10:05.320Z,2.80
2022-12-07T23:13:22.367Z,2.67
2022-12-07T23:16:09.952Z,0.77
2022-12-07T23:19:12.993Z,2.47
2022-12-07T23:21:55.866Z,2.67
2022-12-07T23:24:27.155Z,1.80
2022-12-07T23:27:06.412Z,1.55
2022-12-07T23:29:38.777Z,1.83
2022-12-07T23:36:31.280Z,3.55
2022-12-07T23:39:52.128Z,2.17
2022-12-07T23:43:17.733Z,7.05
2022-12-07T23:46:27.605Z,2.47
2022-12-07T23:56:37.285Z,2.28
2022-12-07T23:59:27.617Z,1.80
